sensor_id;sensor_type;location;lat;lon;timestamp;P1;durP1;ratioP1;P2;durP2;ratioP2
15990;SDS011;8100;50.994;4.538;2022-11-13T00:02:11;22.92;;;14.40;;
15990;SDS011;8100;50.994;4.538;2022-11-13T00:04:58;23.85;;;15.50;;
15990;SDS011;8100;50.994;4.538;2022-11-13T00:07:45;22.40;;;15.45;;
15990;SDS011;8100;50.994;4.538;2022-11-13T00:10:34;24.05;;;16.27;;
15990;SDS011;8100;50.994;4.538;2022-11-13T00:13:21;20.00;;;14.80;;
15990;SDS011;8100;50.994;4.538;2022-11-13T00:16:09;23.08;;;14.65;;
15990;SDS011;8100;50.994;4.538;2022-11-13T00:18:57;19.85;;;14.18;;
15990;SDS011;8100;50.994;4.538;2022-11-13T00:21:44;17.73;;;13.38;;
15990;SDS011;8100;50.994;4.538;2022-11-13T00:24:31;20.92;;;14.05;;
15990;SDS011;8100;50.994;4.538;2022-11-13T00:27:20;21.27;;;14.20;;
15990;SDS011;8100;50.994;4.538;2022-11-13T00:30:08;22.27;;;15.07;;
15990;SDS011;8100;50.994;4.538;2022-11-13T00:32:56;33.47;;;17.20;;
15990;SDS011;8100;50.994;4.538;2022-11-13T00:35:43;26.17;;;15.32;;
15990;SDS011;8100;50.994;4.538;2022-11-13T00:38:30;27.70;;;15.45;;
15990;SDS011;8100;50.994;4.538;2022-11-13T00:41:17;23.77;;;15.25;;
15990;SDS011;8100;50.994;4.538;2022-11-13T00:44:06;20.80;;;13.65;;
15990;SDS011;8100;50.994;4.538;2022-11-13T00:46:53;21.23;;;14.38;;
15990;SDS011;8100;50.994;4.538;2022-11-13T00:49:40;20.17;;;14.38;;
15990;SDS011;8100;50.994;4.538;2022-11-13T00:52:27;21.75;;;14.50;;
15990;SDS011;8100;50.994;4.538;2022-11-13T00:55:14;20.70;;;14.40;;
15990;SDS011;8100;50.994;4.538;2022-11-13T00:58:01;22.48;;;13.40;;
15990;SDS011;8100;50.994;4.538;2022-11-13T01:00:50;25.25;;;14.07;;
15990;SDS011;8100;50.994;4.538;2022-11-13T01:03:37;24.15;;;14.60;;
15990;SDS011;8100;50.994;4.538;2022-11-13T01:06:25;21.88;;;14.73;;
15990;SDS011;8100;50.994;4.538;2022-11-13T01:09:13;26.63;;;14.23;;
15990;SDS011;8100;50.994;4.538;2022-11-13T01:12:00;20.27;;;13.88;;
15990;SDS011;8100;50.994;4.538;2022-11-13T01:14:47;22.05;;;14.20;;
15990;SDS011;8100;50.994;4.538;2022-11-13T01:17:36;21.13;;;13.55;;
15990;SDS011;8100;50.994;4.538;2022-11-13T01:20:23;22.50;;;14.27;;
15990;SDS011;8100;50.994;4.538;2022-11-13T01:23:11;23.02;;;13.98;;
15990;SDS011;8100;50.994;4.538;2022-11-13T01:26:05;25.52;;;14.88;;
15990;SDS011;8100;50.994;4.538;2022-11-13T01:28:54;25.58;;;15.38;;
15990;SDS011;8100;50.994;4.538;2022-11-13T01:31:42;26.90;;;15.82;;
15990;SDS011;8100;50.994;4.538;2022-11-13T01:34:30;21.52;;;14.18;;
15990;SDS011;8100;50.994;4.538;2022-11-13T01:37:17;22.02;;;14.20;;
15990;SDS011;8100;50.994;4.538;2022-11-13T01:40:05;20.27;;;13.85;;
15990;SDS011;8100;50.994;4.538;2022-11-13T01:42:53;20.60;;;13.25;;
15990;SDS011;8100;50.994;4.538;2022-11-13T01:48:57;21.35;;;13.93;;
15990;SDS011;8100;50.994;4.538;2022-11-13T01:51:49;21.83;;;14.02;;
15990;SDS011;8100;50.994;4.538;2022-11-13T01:54:41;22.77;;;14.00;;
15990;SDS011;8100;50.994;4.538;2022-11-13T01:57:32;20.30;;;13.30;;
15990;SDS011;8100;50.994;4.538;2022-11-13T02:00:20;21.17;;;14.15;;
15990;SDS011;8100;50.994;4.538;2022-11-13T02:03:07;23.60;;;14.43;;
15990;SDS011;8100;50.994;4.538;2022-11-13T02:05:55;23.30;;;14.23;;
15990;SDS011;8100;50.994;4.538;2022-11-13T02:08:43;21.27;;;14.55;;
15990;SDS011;8100;50.994;4.538;2022-11-13T02:11:31;23.70;;;14.02;;
15990;SDS011;8100;50.994;4.538;2022-11-13T02:14:18;22.48;;;14.38;;
15990;SDS011;8100;50.994;4.538;2022-11-13T02:17:07;22.65;;;14.32;;
15990;SDS011;8100;50.994;4.538;2022-11-13T02:19:57;27.40;;;14.82;;
15990;SDS011;8100;50.994;4.538;2022-11-13T02:22:48;24.48;;;14.50;;
15990;SDS011;8100;50.994;4.538;2022-11-13T02:25:42;24.65;;;14.95;;
15990;SDS011;8100;50.994;4.538;2022-11-13T02:28:33;21.77;;;14.43;;
15990;SDS011;8100;50.994;4.538;2022-11-13T02:31:20;23.30;;;14.80;;
15990;SDS011;8100;50.994;4.538;2022-11-13T02:34:07;22.95;;;14.43;;
15990;SDS011;8100;50.994;4.538;2022-11-13T02:36:54;22.67;;;13.95;;
15990;SDS011;8100;50.994;4.538;2022-11-13T02:39:41;22.75;;;14.90;;
15990;SDS011;8100;50.994;4.538;2022-11-13T02:42:29;24.77;;;14.93;;
15990;SDS011;8100;50.994;4.538;2022-11-13T02:45:17;27.50;;;15.05;;
15990;SDS011;8100;50.994;4.538;2022-11-13T02:48:04;28.30;;;14.43;;
15990;SDS011;8100;50.994;4.538;2022-11-13T02:50:52;21.05;;;14.20;;
15990;SDS011;8100;50.994;4.538;2022-11-13T02:53:39;21.73;;;14.13;;
15990;SDS011;8100;50.994;4.538;2022-11-13T02:56:27;24.33;;;14.65;;
15990;SDS011;8100;50.994;4.538;2022-11-13T02:59:15;21.08;;;14.13;;
15990;SDS011;8100;50.994;4.538;2022-11-13T03:02:02;22.23;;;14.32;;
15990;SDS011;8100;50.994;4.538;2022-11-13T03:04:49;24.40;;;13.43;;
15990;SDS011;8100;50.994;4.538;2022-11-13T03:07:36;22.05;;;13.48;;
15990;SDS011;8100;50.994;4.538;2022-11-13T03:10:23;22.75;;;13.57;;
15990;SDS011;8100;50.994;4.538;2022-11-13T03:13:10;20.35;;;13.52;;
15990;SDS011;8100;50.994;4.538;2022-11-13T03:16:04;19.65;;;12.93;;
15990;SDS011;8100;50.994;4.538;2022-11-13T03:18:53;22.30;;;13.35;;
15990;SDS011;8100;50.994;4.538;2022-11-13T03:21:41;18.52;;;12.77;;
15990;SDS011;8100;50.994;4.538;2022-11-13T03:24:28;21.75;;;13.48;;
15990;SDS011;8100;50.994;4.538;2022-11-13T03:27:15;20.15;;;13.30;;
15990;SDS011;8100;50.994;4.538;2022-11-13T03:30:02;23.20;;;12.70;;
15990;SDS011;8100;50.994;4.538;2022-11-13T03:32:53;22.50;;;13.82;;
15990;SDS011;8100;50.994;4.538;2022-11-13T03:35:41;20.98;;;13.85;;
15990;SDS011;8100;50.994;4.538;2022-11-13T03:38:28;23.08;;;13.65;;
15990;SDS011;8100;50.994;4.538;2022-11-13T03:41:15;20.65;;;13.65;;
15990;SDS011;8100;50.994;4.538;2022-11-13T03:44:02;21.58;;;13.80;;
15990;SDS011;8100;50.994;4.538;2022-11-13T03:46:49;22.77;;;13.40;;
15990;SDS011;8100;50.994;4.538;2022-11-13T03:49:38;20.85;;;12.93;;
15990;SDS011;8100;50.994;4.538;2022-11-13T03:52:25;17.55;;;13.02;;
15990;SDS011;8100;50.994;4.538;2022-11-13T03:55:12;22.70;;;12.90;;
15990;SDS011;8100;50.994;4.538;2022-11-13T03:57:59;18.40;;;12.50;;
15990;SDS011;8100;50.994;4.538;2022-11-13T04:00:47;18.17;;;12.25;;
15990;SDS011;8100;50.994;4.538;2022-11-13T04:03:34;20.60;;;12.27;;
15990;SDS011;8100;50.994;4.538;2022-11-13T04:06:22;20.90;;;12.45;;
15990;SDS011;8100;50.994;4.538;2022-11-13T04:09:10;21.63;;;12.55;;
15990;SDS011;8100;50.994;4.538;2022-11-13T04:11:57;17.88;;;11.68;;
15990;SDS011;8100;50.994;4.538;2022-11-13T04:14:44;17.17;;;12.00;;
15990;SDS011;8100;50.994;4.538;2022-11-13T04:17:31;15.82;;;11.90;;
15990;SDS011;8100;50.994;4.538;2022-11-13T04:20:19;17.00;;;11.95;;
15990;SDS011;8100;50.994;4.538;2022-11-13T04:23:07;18.02;;;11.65;;
15990;SDS011;8100;50.994;4.538;2022-11-13T04:25:56;15.30;;;11.38;;
15990;SDS011;8100;50.994;4.538;2022-11-13T04:28:44;15.13;;;11.60;;
15990;SDS011;8100;50.994;4.538;2022-11-13T04:31:31;15.15;;;11.27;;
15990;SDS011;8100;50.994;4.538;2022-11-13T04:34:18;15.75;;;11.32;;
15990;SDS011;8100;50.994;4.538;2022-11-13T04:37:05;18.25;;;11.00;;
15990;SDS011;8100;50.994;4.538;2022-11-13T04:39:53;16.45;;;11.15;;
15990;SDS011;8100;50.994;4.538;2022-11-13T04:42:40;15.82;;;10.82;;
15990;SDS011;8100;50.994;4.538;2022-11-13T04:45:36;16.48;;;10.88;;
15990;SDS011;8100;50.994;4.538;2022-11-13T04:48:23;14.80;;;11.50;;
15990;SDS011;8100;50.994;4.538;2022-11-13T04:51:10;14.77;;;11.25;;
15990;SDS011;8100;50.994;4.538;2022-11-13T04:53:58;14.77;;;11.20;;
15990;SDS011;8100;50.994;4.538;2022-11-13T04:56:47;14.77;;;11.10;;
15990;SDS011;8100;50.994;4.538;2022-11-13T04:59:34;14.93;;;11.00;;
15990;SDS011;8100;50.994;4.538;2022-11-13T05:02:21;15.38;;;11.95;;
15990;SDS011;8100;50.994;4.538;2022-11-13T05:05:08;13.40;;;10.68;;
15990;SDS011;8100;50.994;4.538;2022-11-13T05:07:55;13.45;;;11.00;;
15990;SDS011;8100;50.994;4.538;2022-11-13T05:10:42;15.50;;;11.23;;
15990;SDS011;8100;50.994;4.538;2022-11-13T05:13:31;14.07;;;10.77;;
15990;SDS011;8100;50.994;4.538;2022-11-13T05:16:19;14.50;;;11.15;;
15990;SDS011;8100;50.994;4.538;2022-11-13T05:19:06;12.98;;;10.15;;
15990;SDS011;8100;50.994;4.538;2022-11-13T05:21:53;16.83;;;11.35;;
15990;SDS011;8100;50.994;4.538;2022-11-13T05:24:40;13.80;;;10.48;;
15990;SDS011;8100;50.994;4.538;2022-11-13T05:27:27;13.52;;;10.52;;
15990;SDS011;8100;50.994;4.538;2022-11-13T05:30:17;12.98;;;10.75;;
15990;SDS011;8100;50.994;4.538;2022-11-13T05:33:04;13.43;;;10.18;;
15990;SDS011;8100;50.994;4.538;2022-11-13T05:35:51;13.82;;;10.13;;
15990;SDS011;8100;50.994;4.538;2022-11-13T05:38:38;12.85;;;10.40;;
15990;SDS011;8100;50.994;4.538;2022-11-13T05:41:26;14.50;;;10.25;;
15990;SDS011;8100;50.994;4.538;2022-11-13T05:44:13;11.60;;;9.95;;
15990;SDS011;8100;50.994;4.538;2022-11-13T05:47:02;12.27;;;10.35;;
15990;SDS011;8100;50.994;4.538;2022-11-13T05:49:49;12.13;;;9.85;;
15990;SDS011;8100;50.994;4.538;2022-11-13T05:52:36;18.05;;;10.90;;
15990;SDS011;8100;50.994;4.538;2022-11-13T05:55:23;13.85;;;10.68;;
15990;SDS011;8100;50.994;4.538;2022-11-13T05:58:10;13.52;;;10.40;;
15990;SDS011;8100;50.994;4.538;2022-11-13T06:01:04;14.57;;;11.00;;
15990;SDS011;8100;50.994;4.538;2022-11-13T06:03:55;14.77;;;10.40;;
15990;SDS011;8100;50.994;4.538;2022-11-13T06:06:42;14.68;;;11.32;;
15990;SDS011;8100;50.994;4.538;2022-11-13T06:09:30;14.20;;;10.27;;
15990;SDS011;8100;50.994;4.538;2022-11-13T06:12:17;13.18;;;10.23;;
15990;SDS011;8100;50.994;4.538;2022-11-13T06:15:04;12.40;;;10.60;;
15990;SDS011;8100;50.994;4.538;2022-11-13T06:17:52;12.90;;;10.23;;
15990;SDS011;8100;50.994;4.538;2022-11-13T06:20:40;12.80;;;10.32;;
15990;SDS011;8100;50.994;4.538;2022-11-13T06:23:27;15.07;;;10.75;;
15990;SDS011;8100;50.994;4.538;2022-11-13T06:26:15;13.23;;;10.25;;
15990;SDS011;8100;50.994;4.538;2022-11-13T06:29:04;11.52;;;9.80;;
15990;SDS011;8100;50.994;4.538;2022-11-13T06:31:52;13.38;;;10.27;;
15990;SDS011;8100;50.994;4.538;2022-11-13T06:34:39;12.30;;;10.23;;
15990;SDS011;8100;50.994;4.538;2022-11-13T06:37:27;13.40;;;10.23;;
15990;SDS011;8100;50.994;4.538;2022-11-13T06:40:15;12.93;;;10.30;;
15990;SDS011;8100;50.994;4.538;2022-11-13T06:43:02;12.77;;;10.10;;
15990;SDS011;8100;50.994;4.538;2022-11-13T06:45:49;13.13;;;10.52;;
15990;SDS011;8100;50.994;4.538;2022-11-13T06:48:36;12.55;;;9.98;;
15990;SDS011;8100;50.994;4.538;2022-11-13T06:51:24;12.40;;;10.00;;
15990;SDS011;8100;50.994;4.538;2022-11-13T06:54:14;12.13;;;10.05;;
15990;SDS011;8100;50.994;4.538;2022-11-13T06:57:01;12.15;;;9.65;;
15990;SDS011;8100;50.994;4.538;2022-11-13T06:59:48;12.90;;;10.15;;
15990;SDS011;8100;50.994;4.538;2022-11-13T07:02:36;12.90;;;10.15;;
15990;SDS011;8100;50.994;4.538;2022-11-13T07:05:23;11.98;;;10.18;;
15990;SDS011;8100;50.994;4.538;2022-11-13T07:08:10;11.82;;;10.13;;
15990;SDS011;8100;50.994;4.538;2022-11-13T07:10:59;12.85;;;10.25;;
15990;SDS011;8100;50.994;4.538;2022-11-13T07:13:46;14.07;;;10.15;;
15990;SDS011;8100;50.994;4.538;2022-11-13T07:16:34;13.10;;;9.73;;
15990;SDS011;8100;50.994;4.538;2022-11-13T07:19:21;12.70;;;10.32;;
15990;SDS011;8100;50.994;4.538;2022-11-13T07:22:08;11.90;;;10.10;;
15990;SDS011;8100;50.994;4.538;2022-11-13T07:24:55;12.70;;;9.60;;
15990;SDS011;8100;50.994;4.538;2022-11-13T07:27:44;13.25;;;10.00;;
15990;SDS011;8100;50.994;4.538;2022-11-13T07:30:31;11.73;;;9.50;;
15990;SDS011;8100;50.994;4.538;2022-11-13T07:33:18;12.68;;;9.43;;
15990;SDS011;8100;50.994;4.538;2022-11-13T07:36:06;12.10;;;9.80;;
15990;SDS011;8100;50.994;4.538;2022-11-13T07:38:54;12.02;;;9.90;;
15990;SDS011;8100;50.994;4.538;2022-11-13T07:41:41;11.60;;;9.20;;
15990;SDS011;8100;50.994;4.538;2022-11-13T07:44:29;12.15;;;10.43;;
15990;SDS011;8100;50.994;4.538;2022-11-13T07:47:16;19.17;;;13.93;;
15990;SDS011;8100;50.994;4.538;2022-11-13T07:50:04;19.23;;;13.25;;
15990;SDS011;8100;50.994;4.538;2022-11-13T07:52:53;18.75;;;14.50;;
15990;SDS011;8100;50.994;4.538;2022-11-13T07:55:41;21.85;;;15.18;;
15990;SDS011;8100;50.994;4.538;2022-11-13T07:58:29;25.83;;;19.13;;
15990;SDS011;8100;50.994;4.538;2022-11-13T08:01:17;69.20;;;49.08;;
15990;SDS011;8100;50.994;4.538;2022-11-13T08:04:05;35.42;;;26.73;;
15990;SDS011;8100;50.994;4.538;2022-11-13T08:06:52;21.83;;;15.88;;
15990;SDS011;8100;50.994;4.538;2022-11-13T08:09:39;28.58;;;20.25;;
15990;SDS011;8100;50.994;4.538;2022-11-13T08:12:26;21.08;;;16.33;;
15990;SDS011;8100;50.994;4.538;2022-11-13T08:15:13;18.38;;;14.60;;
15990;SDS011;8100;50.994;4.538;2022-11-13T08:18:02;14.15;;;11.00;;
15990;SDS011;8100;50.994;4.538;2022-11-13T08:20:50;14.80;;;11.00;;
15990;SDS011;8100;50.994;4.538;2022-11-13T08:23:37;14.15;;;11.13;;
15990;SDS011;8100;50.994;4.538;2022-11-13T08:26:27;13.18;;;10.57;;
15990;SDS011;8100;50.994;4.538;2022-11-13T08:29:14;12.68;;;9.88;;
15990;SDS011;8100;50.994;4.538;2022-11-13T08:32:01;12.88;;;10.40;;
15990;SDS011;8100;50.994;4.538;2022-11-13T08:34:50;12.40;;;9.88;;
15990;SDS011;8100;50.994;4.538;2022-11-13T08:37:37;14.45;;;11.27;;
15990;SDS011;8100;50.994;4.538;2022-11-13T08:40:24;18.40;;;12.68;;
15990;SDS011;8100;50.994;4.538;2022-11-13T08:43:11;16.48;;;12.02;;
15990;SDS011;8100;50.994;4.538;2022-11-13T08:45:58;13.45;;;10.65;;
15990;SDS011;8100;50.994;4.538;2022-11-13T08:48:45;12.93;;;10.25;;
15990;SDS011;8100;50.994;4.538;2022-11-13T08:51:34;11.32;;;9.70;;
15990;SDS011;8100;50.994;4.538;2022-11-13T08:54:21;13.43;;;10.60;;
15990;SDS011;8100;50.994;4.538;2022-11-13T08:57:08;11.95;;;10.18;;
15990;SDS011;8100;50.994;4.538;2022-11-13T08:59:55;12.35;;;9.93;;
15990;SDS011;8100;50.994;4.538;2022-11-13T09:02:42;12.80;;;10.25;;
15990;SDS011;8100;50.994;4.538;2022-11-13T09:05:29;12.65;;;10.50;;
15990;SDS011;8100;50.994;4.538;2022-11-13T09:08:18;16.08;;;11.02;;
15990;SDS011;8100;50.994;4.538;2022-11-13T09:11:05;11.30;;;9.60;;
15990;SDS011;8100;50.994;4.538;2022-11-13T09:13:52;13.05;;;10.75;;
15990;SDS011;8100;50.994;4.538;2022-11-13T09:16:40;12.95;;;10.10;;
15990;SDS011;8100;50.994;4.538;2022-11-13T09:19:27;12.65;;;9.57;;
15990;SDS011;8100;50.994;4.538;2022-11-13T09:22:14;13.60;;;9.70;;
15990;SDS011;8100;50.994;4.538;2022-11-13T09:25:03;12.20;;;9.82;;
15990;SDS011;8100;50.994;4.538;2022-11-13T09:27:52;12.68;;;10.15;;
15990;SDS011;8100;50.994;4.538;2022-11-13T09:30:40;14.63;;;10.23;;
15990;SDS011;8100;50.994;4.538;2022-11-13T09:33:27;14.10;;;10.52;;
15990;SDS011;8100;50.994;4.538;2022-11-13T09:36:14;14.65;;;10.85;;
15990;SDS011;8100;50.994;4.538;2022-11-13T09:39:01;17.90;;;10.35;;
15990;SDS011;8100;50.994;4.538;2022-11-13T09:41:52;15.32;;;10.95;;
15990;SDS011;8100;50.994;4.538;2022-11-13T09:44:44;13.90;;;10.18;;
15990;SDS011;8100;50.994;4.538;2022-11-13T09:47:35;15.10;;;10.35;;
15990;SDS011;8100;50.994;4.538;2022-11-13T09:50:26;14.88;;;10.68;;
15990;SDS011;8100;50.994;4.538;2022-11-13T09:53:16;16.30;;;10.38;;
15990;SDS011;8100;50.994;4.538;2022-11-13T09:56:06;13.77;;;10.10;;
15990;SDS011;8100;50.994;4.538;2022-11-13T09:59:05;14.35;;;10.10;;
15990;SDS011;8100;50.994;4.538;2022-11-13T10:02:02;12.93;;;9.45;;
15990;SDS011;8100;50.994;4.538;2022-11-13T10:05:01;12.25;;;9.55;;
15990;SDS011;8100;50.994;4.538;2022-11-13T10:07:53;14.32;;;10.15;;
15990;SDS011;8100;50.994;4.538;2022-11-13T10:10:48;12.38;;;8.73;;
15990;SDS011;8100;50.994;4.538;2022-11-13T10:13:37;12.27;;;9.23;;
15990;SDS011;8100;50.994;4.538;2022-11-13T10:16:31;11.05;;;7.90;;
15990;SDS011;8100;50.994;4.538;2022-11-13T10:19:23;10.55;;;7.57;;
15990;SDS011;8100;50.994;4.538;2022-11-13T10:22:15;10.68;;;8.20;;
15990;SDS011;8100;50.994;4.538;2022-11-13T10:25:11;12.45;;;8.30;;
15990;SDS011;8100;50.994;4.538;2022-11-13T10:28:01;12.30;;;7.78;;
15990;SDS011;8100;50.994;4.538;2022-11-13T10:30:56;10.80;;;8.18;;
15990;SDS011;8100;50.994;4.538;2022-11-13T10:33:45;10.68;;;7.45;;
15990;SDS011;8100;50.994;4.538;2022-11-13T10:36:33;9.95;;;6.47;;
15990;SDS011;8100;50.994;4.538;2022-11-13T10:39:25;8.80;;;6.03;;
15990;SDS011;8100;50.994;4.538;2022-11-13T10:42:21;10.63;;;6.93;;
15990;SDS011;8100;50.994;4.538;2022-11-13T10:45:13;9.13;;;7.28;;
15990;SDS011;8100;50.994;4.538;2022-11-13T10:48:01;8.00;;;6.28;;
15990;SDS011;8100;50.994;4.538;2022-11-13T10:50:53;9.10;;;6.65;;
15990;SDS011;8100;50.994;4.538;2022-11-13T10:53:42;8.57;;;6.72;;
15990;SDS011;8100;50.994;4.538;2022-11-13T10:56:30;10.27;;;7.43;;
15990;SDS011;8100;50.994;4.538;2022-11-13T10:59:19;9.10;;;6.47;;
15990;SDS011;8100;50.994;4.538;2022-11-13T11:02:15;9.55;;;6.78;;
15990;SDS011;8100;50.994;4.538;2022-11-13T11:05:05;9.25;;;6.75;;
15990;SDS011;8100;50.994;4.538;2022-11-13T11:08:06;8.85;;;6.55;;
15990;SDS011;8100;50.994;4.538;2022-11-13T11:10:56;9.38;;;7.50;;
15990;SDS011;8100;50.994;4.538;2022-11-13T11:14:03;10.50;;;6.53;;
15990;SDS011;8100;50.994;4.538;2022-11-13T11:16:56;9.55;;;6.28;;
15990;SDS011;8100;50.994;4.538;2022-11-13T11:19:46;10.27;;;6.45;;
15990;SDS011;8100;50.994;4.538;2022-11-13T11:22:40;10.23;;;7.38;;
15990;SDS011;8100;50.994;4.538;2022-11-13T11:25:33;10.30;;;6.60;;
15990;SDS011;8100;50.994;4.538;2022-11-13T11:28:27;9.57;;;6.68;;
15990;SDS011;8100;50.994;4.538;2022-11-13T11:31:19;8.85;;;6.25;;
15990;SDS011;8100;50.994;4.538;2022-11-13T11:34:13;7.97;;;5.93;;
15990;SDS011;8100;50.994;4.538;2022-11-13T11:37:09;7.10;;;5.78;;
15990;SDS011;8100;50.994;4.538;2022-11-13T11:39:59;8.98;;;5.80;;
15990;SDS011;8100;50.994;4.538;2022-11-13T11:42:55;8.50;;;6.13;;
15990;SDS011;8100;50.994;4.538;2022-11-13T11:45:48;9.25;;;6.53;;
15990;SDS011;8100;50.994;4.538;2022-11-13T11:48:36;8.90;;;5.70;;
15990;SDS011;8100;50.994;4.538;2022-11-13T11:51:24;8.13;;;5.70;;
15990;SDS011;8100;50.994;4.538;2022-11-13T11:54:18;10.00;;;6.13;;
15990;SDS011;8100;50.994;4.538;2022-11-13T11:57:17;8.48;;;6.03;;
15990;SDS011;8100;50.994;4.538;2022-11-13T12:00:16;7.95;;;5.35;;
15990;SDS011;8100;50.994;4.538;2022-11-13T12:03:14;7.43;;;5.15;;
15990;SDS011;8100;50.994;4.538;2022-11-13T12:06:31;7.07;;;4.75;;
15990;SDS011;8100;50.994;4.538;2022-11-13T12:09:30;8.45;;;5.18;;
15990;SDS011;8100;50.994;4.538;2022-11-13T12:12:23;8.05;;;5.43;;
15990;SDS011;8100;50.994;4.538;2022-11-13T12:15:23;6.53;;;5.28;;
15990;SDS011;8100;50.994;4.538;2022-11-13T12:18:25;7.13;;;5.05;;
15990;SDS011;8100;50.994;4.538;2022-11-13T12:21:21;6.15;;;4.82;;
15990;SDS011;8100;50.994;4.538;2022-11-13T12:24:17;7.20;;;5.30;;
15990;SDS011;8100;50.994;4.538;2022-11-13T12:27:33;7.05;;;5.13;;
15990;SDS011;8100;50.994;4.538;2022-11-13T12:30:26;7.43;;;5.25;;
15990;SDS011;8100;50.994;4.538;2022-11-13T12:33:22;8.05;;;5.80;;
15990;SDS011;8100;50.994;4.538;2022-11-13T12:36:19;7.97;;;5.70;;
15990;SDS011;8100;50.994;4.538;2022-11-13T12:39:21;10.65;;;6.57;;
15990;SDS011;8100;50.994;4.538;2022-11-13T12:42:18;10.88;;;7.43;;
15990;SDS011;8100;50.994;4.538;2022-11-13T12:45:12;10.80;;;7.40;;
15990;SDS011;8100;50.994;4.538;2022-11-13T12:48:09;11.93;;;8.05;;
15990;SDS011;8100;50.994;4.538;2022-11-13T12:51:09;11.13;;;7.05;;
15990;SDS011;8100;50.994;4.538;2022-11-13T12:53:57;9.90;;;7.60;;
15990;SDS011;8100;50.994;4.538;2022-11-13T12:56:44;9.10;;;6.00;;
15990;SDS011;8100;50.994;4.538;2022-11-13T12:59:32;8.85;;;6.13;;
15990;SDS011;8100;50.994;4.538;2022-11-13T13:05:51;8.75;;;6.25;;
15990;SDS011;8100;50.994;4.538;2022-11-13T13:08:46;8.77;;;6.78;;
15990;SDS011;8100;50.994;4.538;2022-11-13T13:11:46;8.70;;;6.57;;
15990;SDS011;8100;50.994;4.538;2022-11-13T13:14:54;8.80;;;6.07;;
15990;SDS011;8100;50.994;4.538;2022-11-13T13:18:01;6.65;;;5.18;;
15990;SDS011;8100;50.994;4.538;2022-11-13T13:21:00;8.73;;;5.25;;
15990;SDS011;8100;50.994;4.538;2022-11-13T13:23:51;8.35;;;5.35;;
15990;SDS011;8100;50.994;4.538;2022-11-13T13:26:42;8.77;;;5.60;;
15990;SDS011;8100;50.994;4.538;2022-11-13T13:29:32;9.15;;;5.78;;
15990;SDS011;8100;50.994;4.538;2022-11-13T13:32:21;8.27;;;5.45;;
15990;SDS011;8100;50.994;4.538;2022-11-13T13:35:13;8.52;;;5.45;;
15990;SDS011;8100;50.994;4.538;2022-11-13T13:38:08;6.88;;;5.22;;
15990;SDS011;8100;50.994;4.538;2022-11-13T13:41:05;7.80;;;5.25;;
15990;SDS011;8100;50.994;4.538;2022-11-13T13:47:23;6.30;;;5.10;;
15990;SDS011;8100;50.994;4.538;2022-11-13T13:50:13;6.75;;;4.93;;
15990;SDS011;8100;50.994;4.538;2022-11-13T13:53:02;7.18;;;4.93;;
15990;SDS011;8100;50.994;4.538;2022-11-13T13:55:52;8.05;;;5.15;;
15990;SDS011;8100;50.994;4.538;2022-11-13T13:58:41;6.93;;;4.65;;
15990;SDS011;8100;50.994;4.538;2022-11-13T14:01:29;6.00;;;4.40;;
15990;SDS011;8100;50.994;4.538;2022-11-13T14:04:18;9.02;;;4.90;;
15990;SDS011;8100;50.994;4.538;2022-11-13T14:07:16;9.07;;;5.10;;
15990;SDS011;8100;50.994;4.538;2022-11-13T14:10:06;6.28;;;4.15;;
15990;SDS011;8100;50.994;4.538;2022-11-13T14:13:02;5.85;;;4.30;;
15990;SDS011;8100;50.994;4.538;2022-11-13T14:15:58;7.75;;;5.22;;
15990;SDS011;8100;50.994;4.538;2022-11-13T14:18:46;6.75;;;5.03;;
15990;SDS011;8100;50.994;4.538;2022-11-13T14:21:33;5.82;;;4.75;;
15990;SDS011;8100;50.994;4.538;2022-11-13T14:24:21;8.30;;;5.20;;
15990;SDS011;8100;50.994;4.538;2022-11-13T14:27:12;5.82;;;4.35;;
15990;SDS011;8100;50.994;4.538;2022-11-13T14:30:05;6.75;;;4.57;;
15990;SDS011;8100;50.994;4.538;2022-11-13T14:33:08;7.90;;;5.60;;
15990;SDS011;8100;50.994;4.538;2022-11-13T14:35:56;10.07;;;4.55;;
15990;SDS011;8100;50.994;4.538;2022-11-13T14:38:45;8.23;;;4.97;;
15990;SDS011;8100;50.994;4.538;2022-11-13T14:41:34;11.02;;;5.30;;
15990;SDS011;8100;50.994;4.538;2022-11-13T14:44:25;7.10;;;4.65;;
15990;SDS011;8100;50.994;4.538;2022-11-13T14:47:22;7.72;;;4.93;;
15990;SDS011;8100;50.994;4.538;2022-11-13T14:50:18;8.55;;;4.72;;
15990;SDS011;8100;50.994;4.538;2022-11-13T14:53:08;7.78;;;5.05;;
15990;SDS011;8100;50.994;4.538;2022-11-13T14:55:56;8.93;;;5.28;;
15990;SDS011;8100;50.994;4.538;2022-11-13T14:58:46;10.38;;;5.20;;
15990;SDS011;8100;50.994;4.538;2022-11-13T15:01:33;6.28;;;5.05;;
15990;SDS011;8100;50.994;4.538;2022-11-13T15:04:21;8.38;;;5.00;;
15990;SDS011;8100;50.994;4.538;2022-11-13T15:07:18;7.97;;;4.85;;
15990;SDS011;8100;50.994;4.538;2022-11-13T15:10:08;7.90;;;4.95;;
15990;SDS011;8100;50.994;4.538;2022-11-13T15:12:59;8.20;;;5.28;;
15990;SDS011;8100;50.994;4.538;2022-11-13T15:15:46;8.98;;;6.03;;
15990;SDS011;8100;50.994;4.538;2022-11-13T15:18:34;9.52;;;6.13;;
15990;SDS011;8100;50.994;4.538;2022-11-13T15:21:23;10.05;;;6.47;;
15990;SDS011;8100;50.994;4.538;2022-11-13T15:24:10;8.27;;;5.57;;
15990;SDS011;8100;50.994;4.538;2022-11-13T15:26:58;7.78;;;5.90;;
15990;SDS011;8100;50.994;4.538;2022-11-13T15:29:46;7.65;;;5.40;;
15990;SDS011;8100;50.994;4.538;2022-11-13T15:32:34;10.48;;;5.43;;
15990;SDS011;8100;50.994;4.538;2022-11-13T15:35:21;8.32;;;5.97;;
15990;SDS011;8100;50.994;4.538;2022-11-13T15:38:10;8.43;;;5.68;;
15990;SDS011;8100;50.994;4.538;2022-11-13T15:40:57;8.63;;;5.85;;
15990;SDS011;8100;50.994;4.538;2022-11-13T15:43:45;9.77;;;6.28;;
15990;SDS011;8100;50.994;4.538;2022-11-13T15:46:33;11.07;;;6.47;;
15990;SDS011;8100;50.994;4.538;2022-11-13T15:49:20;9.95;;;5.85;;
15990;SDS011;8100;50.994;4.538;2022-11-13T15:52:08;12.80;;;7.05;;
15990;SDS011;8100;50.994;4.538;2022-11-13T15:54:56;10.73;;;6.93;;
15990;SDS011;8100;50.994;4.538;2022-11-13T15:57:44;11.23;;;7.30;;
15990;SDS011;8100;50.994;4.538;2022-11-13T16:00:31;10.32;;;7.57;;
15990;SDS011;8100;50.994;4.538;2022-11-13T16:03:18;12.35;;;7.00;;
15990;SDS011;8100;50.994;4.538;2022-11-13T16:06:07;10.77;;;6.30;;
15990;SDS011;8100;50.994;4.538;2022-11-13T16:08:56;10.95;;;7.47;;
15990;SDS011;8100;50.994;4.538;2022-11-13T16:11:44;12.75;;;8.05;;
15990;SDS011;8100;50.994;4.538;2022-11-13T16:14:32;11.52;;;8.55;;
15990;SDS011;8100;50.994;4.538;2022-11-13T16:17:19;15.73;;;8.43;;
15990;SDS011;8100;50.994;4.538;2022-11-13T16:20:07;12.30;;;7.57;;
15990;SDS011;8100;50.994;4.538;2022-11-13T16:22:57;10.15;;;7.50;;
15990;SDS011;8100;50.994;4.538;2022-11-13T16:25:44;10.20;;;7.25;;
15990;SDS011;8100;50.994;4.538;2022-11-13T16:28:34;13.45;;;8.38;;
15990;SDS011;8100;50.994;4.538;2022-11-13T16:31:21;12.65;;;8.32;;
15990;SDS011;8100;50.994;4.538;2022-11-13T16:34:08;12.07;;;8.48;;
15990;SDS011;8100;50.994;4.538;2022-11-13T16:36:56;14.05;;;9.30;;
15990;SDS011;8100;50.994;4.538;2022-11-13T16:39:43;14.10;;;8.93;;
15990;SDS011;8100;50.994;4.538;2022-11-13T16:42:31;14.20;;;8.73;;
15990;SDS011;8100;50.994;4.538;2022-11-13T16:45:19;15.55;;;9.73;;
15990;SDS011;8100;50.994;4.538;2022-11-13T16:48:08;13.63;;;8.82;;
15990;SDS011;8100;50.994;4.538;2022-11-13T16:50:58;15.32;;;9.18;;
15990;SDS011;8100;50.994;4.538;2022-11-13T16:53:45;12.63;;;8.63;;
15990;SDS011;8100;50.994;4.538;2022-11-13T16:56:32;11.13;;;8.02;;
15990;SDS011;8100;50.994;4.538;2022-11-13T16:59:19;12.07;;;8.48;;
15990;SDS011;8100;50.994;4.538;2022-11-13T17:02:12;13.25;;;8.50;;
15990;SDS011;8100;50.994;4.538;2022-11-13T17:05:00;15.32;;;9.52;;
15990;SDS011;8100;50.994;4.538;2022-11-13T17:07:48;12.38;;;9.30;;